Terminal Aerodrome Forecast
Issued by NWS

Current Version | Previous Version | Graphics & Text | Print | Product List | Glossary On
Versions: 1 2 3 4 5 6 7 8 9 10 11 12 13 14 15 16 17 18 19
000
FTUS41 KILN 260540
TAFLCK
TAF
KLCK 260540Z 2606/2706 18005KT P6SM FEW050 BKN200
     FM261100 19006KT P6SM BKN028
     FM261400 21009KT P6SM BKN020
     FM262000 21008KT P6SM SCT035
     FM270100 17004KT P6SM FEW040 SCT250=

USA.gov is the U.S. government's official web portal to all federal, state and local government web resources and services.